Time;durP1;ratioP1;P1;durP2;ratioP2;P2;SDS_P1;SDS_P2;PMS_P1;PMS_P2;Temp;Humidity;BMP_temperature;BMP_pressure;BME280_temperature;BME280_humidity;BME280_pressure;Samples;Min_cycle;Max_cycle;Signal;HPM_P1;HPM_P2
2024/01/12 00:02:22;;;;;;;;;;;;;;;18.00;51.47;100913.56;7391738;19;1688;-34
2024/01/12 00:04:51;;;;;;;;;;;;;;;18.02;51.39;100918.81;7392325;19;1571;-34
2024/01/12 00:07:22;;;;;;;;;;;;;;;18.04;51.51;100912.34;7392351;19;1614;-34
2024/01/12 00:09:50;;;;;;;;;;;;;;;18.06;51.46;100907.75;7390918;19;1630;-34
2024/01/12 00:12:18;;;;;;;;;;;;;;;18.10;51.32;100913.66;7390762;19;1867;-34
2024/01/12 00:14:47;;;;;;;;;;;;;;;18.13;51.24;100924.13;7391969;19;1488;-34
2024/01/12 00:17:18;;;;;;;;;;;;;;;18.15;50.91;100913.31;7392161;19;1776;-34
2024/01/12 00:19:46;;;;;;;;;;;;;;;18.15;50.93;100924.03;7390968;19;1906;-34
2024/01/12 00:22:14;;;;;;;;;;;;;;;18.18;50.82;100921.91;7390957;19;1853;-34
2024/01/12 00:24:45;;;;;;;;;;;;;;;18.19;50.95;100918.28;7391588;19;1571;-34
2024/01/12 00:27:14;;;;;;;;;;;;;;;18.16;51.07;100920.34;7390611;19;1646;-34
2024/01/12 00:29:42;;;;;;;;;;;;;;;18.23;50.87;100930.44;7390501;19;1569;-34
2024/01/12 00:32:11;;;;;;;;;;;;;;;18.16;50.86;100918.50;7389880;19;1905;-34
2024/01/12 00:34:40;;;;;;;;;;;;;;;18.14;50.72;100930.34;7391032;19;1683;-34
2024/01/12 00:37:08;;;;;;;;;;;;;;;18.15;50.86;100938.25;7390681;19;1528;-34
2024/01/12 00:39:36;;;;;;;;;;;;;;;18.25;50.85;100923.13;7390866;19;1677;-34
2024/01/12 00:42:08;;;;;;;;;;;;;;;18.34;50.24;100939.41;7388779;19;1780;-34
2024/01/12 00:44:36;;;;;;;;;;;;;;;18.32;50.31;100927.97;7387664;19;1726;-34
2024/01/12 00:47:05;;;;;;;;;;;;;;;18.31;50.21;100937.84;7390394;19;1753;-34
2024/01/12 00:49:33;;;;;;;;;;;;;;;18.33;50.27;100924.31;7390472;19;1629;-34
2024/01/12 00:52:01;;;;;;;;;;;;;;;18.35;50.31;100922.38;7388475;19;1861;-34
2024/01/12 00:54:30;;;;;;;;;;;;;;;18.38;50.08;100927.44;7390128;19;1640;-34
2024/01/12 00:56:58;;;;;;;;;;;;;;;18.35;50.13;100933.91;7392831;19;1660;-34
2024/01/12 00:59:29;;;;;;;;;;;;;;;18.34;50.18;100936.72;7397959;19;1661;-34
2024/01/12 01:01:58;;;;;;;;;;;;;;;18.33;50.11;100918.97;7397944;19;1763;-34
2024/01/12 01:04:27;;;;;;;;;;;;;;;18.33;50.04;100918.97;7398412;19;1662;-34
2024/01/12 01:06:55;;;;;;;;;;;;;;;18.32;50.07;100922.63;7397386;19;1864;-34
2024/01/12 01:09:24;;;;;;;;;;;;;;;18.35;49.92;100904.47;7398666;19;1301;-34
2024/01/12 01:11:53;;;;;;;;;;;;;;;17.65;49.84;100793.41;7395521;19;1856;-34
2024/01/12 01:14:24;;;;;;;;;;;;;;;18.31;49.96;100912.91;7397697;19;1670;-35
2024/01/12 01:16:55;;;;;;;;;;;;;;;18.33;49.81;100916.28;7397447;19;1571;-34
2024/01/12 01:19:24;;;;;;;;;;;;;;;18.28;49.71;100922.88;7397306;19;1658;-34
2024/01/12 01:21:53;;;;;;;;;;;;;;;18.34;49.70;100929.53;7395750;19;1523;-34
2024/01/12 01:24:21;;;;;;;;;;;;;;;18.33;49.68;100917.13;7397441;19;1786;-34
2024/01/12 01:26:49;;;;;;;;;;;;;;;18.31;49.76;100916.41;7396337;19;1667;-34
2024/01/12 01:29:18;;;;;;;;;;;;;;;18.36;49.61;100930.25;7396417;19;1618;-34
2024/01/12 01:31:46;;;;;;;;;;;;;;;18.35;49.60;100909.00;7395430;19;1847;-34
2024/01/12 01:34:17;;;;;;;;;;;;;;;18.35;49.62;100927.72;7395756;19;1690;-34
2024/01/12 01:36:46;;;;;;;;;;;;;;;18.27;49.51;100899.75;7396504;19;1697;-34
2024/01/12 01:39:14;;;;;;;;;;;;;;;18.33;49.51;100924.31;7397681;19;1042;-34
2024/01/12 01:41:42;;;;;;;;;;;;;;;18.41;49.46;100909.31;7395959;19;1592;-34
2024/01/12 01:44:11;;;;;;;;;;;;;;;18.35;49.43;100909.81;7393376;19;2046;-34
2024/01/12 01:46:39;;;;;;;;;;;;;;;18.38;49.25;100900.69;7395563;19;1606;-34
2024/01/12 01:49:08;;;;;;;;;;;;;;;18.40;49.31;100920.13;7396269;19;1503;-34
2024/01/12 01:51:39;;;;;;;;;;;;;;;18.37;49.36;100923.94;7393384;19;1892;-34
2024/01/12 01:54:07;;;;;;;;;;;;;;;18.43;49.32;100935.97;7397217;19;1776;-35
2024/01/12 01:56:37;;;;;;;;;;;;;;;18.39;49.24;100919.31;7395711;19;1848;-34
2024/01/12 01:59:05;;;;;;;;;;;;;;;18.46;49.42;100933.00;7395850;19;1762;-34
2024/01/12 02:01:34;;;;;;;;;;;;;;;18.44;49.70;100943.00;7394535;19;1753;-34
2024/01/12 02:04:03;;;;;;;;;;;;;;;18.35;50.40;100949.16;7394821;19;1717;-34
2024/01/12 02:06:32;;;;;;;;;;;;;;;18.31;50.65;100959.25;7395580;19;1554;-34
2024/01/12 02:09:04;;;;;;;;;;;;;;;18.33;50.87;100967.16;7395420;19;1007;-34
2024/01/12 02:11:32;;;;;;;;;;;;;;;18.26;50.90;100965.00;7392966;19;1857;-34
2024/01/12 02:14:06;;;;;;;;;;;;;;;18.25;51.14;100982.00;7395418;19;1566;-34
2024/01/12 02:16:34;;;;;;;;;;;;;;;18.31;51.13;100995.88;7395156;19;1381;-34
2024/01/12 02:19:03;;;;;;;;;;;;;;;18.27;51.41;100980.06;7395255;19;1464;-34
2024/01/12 02:21:34;;;;;;;;;;;;;;;18.35;50.90;100973.25;7395830;19;1596;-34
2024/01/12 02:24:02;;;;;;;;;;;;;;;18.13;51.17;100975.00;7395543;19;1567;-34
2024/01/12 02:26:30;;;;;;;;;;;;;;;17.77;51.60;100982.28;7394706;19;1678;-34
2024/01/12 02:29:02;;;;;;;;;;;;;;;17.47;52.06;100954.34;7394960;19;1412;-34
2024/01/12 02:31:31;;;;;;;;;;;;;;;17.31;52.61;100956.53;7393618;19;1852;-34
2024/01/12 02:33:59;;;;;;;;;;;;;;;17.26;52.72;100938.16;7394743;19;1634;-34
2024/01/12 02:36:28;;;;;;;;;;;;;;;17.74;51.70;100953.09;7394018;19;1407;-34
2024/01/12 02:38:58;;;;;;;;;;;;;;;18.28;50.69;100954.13;7395111;19;1844;-35
2024/01/12 02:41:27;;;;;;;;;;;;;;;18.50;50.05;100963.91;7393443;19;1475;-35
2024/01/12 02:43:55;;;;;;;;;;;;;;;18.49;49.92;100952.38;7393070;19;1540;-34
2024/01/12 02:46:24;;;;;;;;;;;;;;;18.39;50.00;100955.94;7394025;19;1665;-34
2024/01/12 02:48:52;;;;;;;;;;;;;;;18.25;50.41;100952.56;7395030;19;1524;-34
2024/01/12 02:51:21;;;;;;;;;;;;;;;18.19;51.04;100966.47;7394836;19;1868;-34
2024/01/12 02:53:49;;;;;;;;;;;;;;;18.21;51.03;100966.34;7393576;19;1772;-34
2024/01/12 02:56:20;;;;;;;;;;;;;;;18.15;51.15;100961.50;7393639;19;1915;-34
2024/01/12 02:58:48;;;;;;;;;;;;;;;18.13;51.10;100956.25;7393192;19;1412;-34
2024/01/12 03:01:20;;;;;;;;;;;;;;;18.14;51.14;100947.22;7393641;19;1575;-34
2024/01/12 03:03:48;;;;;;;;;;;;;;;18.12;51.35;100943.00;7391970;19;1701;-34
2024/01/12 03:06:16;;;;;;;;;;;;;;;18.13;51.17;100969.63;7392533;19;1849;-34
2024/01/12 03:08:45;;;;;;;;;;;;;;;18.12;51.33;100973.28;7393079;19;1751;-34
2024/01/12 03:11:13;;;;;;;;;;;;;;;18.12;51.27;100954.53;7392352;19;1817;-34
2024/01/12 03:13:44;;;;;;;;;;;;;;;18.14;51.16;100955.25;7394060;19;1337;-34
2024/01/12 03:16:20;;;;;;;;;;;;;;;18.16;51.22;100971.19;7391043;19;1928;-34
2024/01/12 03:18:48;;;;;;;;;;;;;;;18.14;51.30;100952.59;7391626;19;1423;-34
2024/01/12 03:21:16;;;;;;;;;;;;;;;18.17;51.24;100965.72;7394054;19;1494;-34
2024/01/12 03:23:45;;;;;;;;;;;;;;;18.17;51.22;100954.19;7391827;19;1924;-34
2024/01/12 03:26:13;;;;;;;;;;;;;;;18.20;51.25;100957.44;7392531;19;1718;-34
2024/01/12 03:28:44;;;;;;;;;;;;;;;18.18;51.28;100958.53;7392030;19;1808;-34
2024/01/12 03:31:12;;;;;;;;;;;;;;;18.15;51.02;100945.44;7391237;19;1847;-34
2024/01/12 03:33:41;;;;;;;;;;;;;;;18.16;51.06;100939.94;7391131;19;2155;-34
2024/01/12 03:36:10;;;;;;;;;;;;;;;18.19;51.25;100953.06;7392371;19;1685;-34
2024/01/12 03:38:38;;;;;;;;;;;;;;;18.24;50.98;100958.03;7392589;19;1572;-34
2024/01/12 03:41:07;;;;;;;;;;;;;;;18.20;51.07;100957.44;7392255;19;1459;-35
2024/01/12 03:43:35;;;;;;;;;;;;;;;18.22;50.99;100951.97;7391354;19;1719;-34
2024/01/12 03:46:06;;;;;;;;;;;;;;;18.32;50.72;100955.56;7392793;19;1673;-35
2024/01/12 03:48:35;;;;;;;;;;;;;;;18.26;51.30;100950.72;7392835;19;1892;-34
2024/01/12 03:51:03;;;;;;;;;;;;;;;18.19;51.42;100955.75;7392116;19;1646;-34
2024/01/12 03:53:31;;;;;;;;;;;;;;;18.19;51.65;100950.41;7389955;19;1845;-34
2024/01/12 03:56:00;;;;;;;;;;;;;;;18.23;51.38;100962.56;7391347;19;1523;-34
2024/01/12 03:58:28;;;;;;;;;;;;;;;18.21;51.43;100980.56;7391099;19;1574;-34
2024/01/12 04:00:56;;;;;;;;;;;;;;;18.32;51.52;100970.81;7391902;19;1775;-34
2024/01/12 04:03:27;;;;;;;;;;;;;;;18.51;51.31;100973.66;7390730;19;1589;-34
2024/01/12 04:05:56;;;;;;;;;;;;;;;18.05;51.77;100964.06;7392275;19;1615;-34
2024/01/12 04:08:24;;;;;;;;;;;;;;;17.59;53.15;100971.25;7389659;19;1792;-34
2024/01/12 04:10:52;;;;;;;;;;;;;;;17.50;53.46;100991.50;7392608;19;1681;-34
2024/01/12 04:13:21;;;;;;;;;;;;;;;17.99;52.50;100985.97;7390776;19;1883;-34
2024/01/12 04:15:49;;;;;;;;;;;;;;;18.32;51.96;100984.19;7391173;19;1570;-34
2024/01/12 04:18:18;;;;;;;;;;;;;;;18.62;51.47;100979.00;7389525;19;1666;-34
2024/01/12 04:20:49;;;;;;;;;;;;;;;18.81;51.07;100985.50;7389614;19;1725;-34
2024/01/12 04:23:17;;;;;;;;;;;;;;;18.92;51.09;100989.94;7390932;19;1682;-34
2024/01/12 04:25:46;;;;;;;;;;;;;;;18.85;51.16;101005.72;7392166;19;1578;-34
2024/01/12 04:28:14;;;;;;;;;;;;;;;18.82;51.14;101022.03;7392292;19;1449;-34
2024/01/12 04:30:42;;;;;;;;;;;;;;;18.87;51.05;101014.47;7391205;19;1504;-34
2024/01/12 04:33:11;;;;;;;;;;;;;;;18.80;51.30;101021.31;7389946;19;1900;-34
2024/01/12 04:35:39;;;;;;;;;;;;;;;18.69;51.74;101031.06;7391802;19;1392;-34
2024/01/12 04:38:11;;;;;;;;;;;;;;;18.67;52.16;101042.88;7389180;19;1549;-34
2024/01/12 04:40:39;;;;;;;;;;;;;;;18.65;52.08;101043.00;7390848;19;1328;-34
2024/01/12 04:43:08;;;;;;;;;;;;;;;18.66;52.00;101043.84;7390795;19;1385;-35
2024/01/12 04:45:36;;;;;;;;;;;;;;;18.63;52.19;101054.84;7385946;19;1674;-34
2024/01/12 04:48:05;;;;;;;;;;;;;;;18.73;51.80;101055.78;7388037;19;1291;-34
2024/01/12 04:50:34;;;;;;;;;;;;;;;18.66;52.18;101060.78;7387022;19;1558;-34
2024/01/12 04:53:02;;;;;;;;;;;;;;;18.78;51.80;101053.56;7389647;19;1861;-34
2024/01/12 04:55:33;;;;;;;;;;;;;;;18.61;52.35;101079.06;7390612;19;1491;-34
2024/01/12 04:58:03;;;;;;;;;;;;;;;18.65;51.98;101067.09;7389616;19;1673;-34
2024/01/12 05:00:31;;;;;;;;;;;;;;;18.66;52.08;101071.50;7389184;19;1500;-34
2024/01/12 05:02:59;;;;;;;;;;;;;;;18.59;51.77;101086.38;7389252;19;1403;-34
2024/01/12 05:05:28;;;;;;;;;;;;;;;18.41;52.22;101088.72;7381360;19;1152;-34
2024/01/12 05:07:56;;;;;;;;;;;;;;;18.38;52.44;101098.81;7379549;19;1816;-34
2024/01/12 05:10:24;;;;;;;;;;;;;;;18.31;52.61;101076.19;7383051;19;1494;-34
2024/01/12 05:12:55;;;;;;;;;;;;;;;18.34;52.76;101079.47;7385081;19;1864;-34
2024/01/12 05:15:23;;;;;;;;;;;;;;;18.50;52.69;101084.44;7388613;19;1515;-34
2024/01/12 05:17:52;;;;;;;;;;;;;;;18.53;52.46;101088.69;7386679;19;1429;-34
2024/01/12 05:20:21;;;;;;;;;;;;;;;18.52;52.51;101077.13;7387330;19;1392;-34
2024/01/12 05:22:49;;;;;;;;;;;;;;;18.58;52.41;101073.97;7389246;19;1104;-34
2024/01/12 05:25:18;;;;;;;;;;;;;;;18.59;52.44;101070.28;7388816;19;1754;-34
2024/01/12 05:27:46;;;;;;;;;;;;;;;18.58;52.48;101084.69;7388276;19;1912;-34
2024/01/12 05:30:17;;;;;;;;;;;;;;;18.58;52.41;101081.13;7388027;19;1569;-34
2024/01/12 05:32:46;;;;;;;;;;;;;;;18.60;52.43;101084.53;7388181;19;1855;-34
2024/01/12 05:35:14;;;;;;;;;;;;;;;18.55;52.68;101068.84;7386293;19;1682;-34
2024/01/12 05:37:42;;;;;;;;;;;;;;;18.61;52.32;101070.19;7388060;19;1792;-34
2024/01/12 05:40:11;;;;;;;;;;;;;;;18.61;52.56;101067.50;7390541;19;1330;-34
2024/01/12 05:42:39;;;;;;;;;;;;;;;18.65;51.92;101090.38;7388174;19;1824;-34
2024/01/12 05:45:08;;;;;;;;;;;;;;;18.55;51.19;101084.91;7395758;19;1726;-34
2024/01/12 05:47:39;;;;;;;;;;;;;;;18.62;51.26;101102.19;7395256;19;1479;-48
2024/01/12 05:50:06;;;;;;;;;;;;;;;18.53;52.57;101089.53;7396110;19;1447;-34
2024/01/12 05:52:34;;;;;;;;;;;;;;;18.56;53.11;101107.19;7393954;19;1856;-34
2024/01/12 05:55:04;;;;;;;;;;;;;;;18.55;53.37;101114.38;7394919;19;1455;-34
2024/01/12 05:57:32;;;;;;;;;;;;;;;18.48;53.86;101119.38;7394784;19;1163;-34
2024/01/12 06:00:02;;;;;;;;;;;;;;;18.42;54.02;101102.94;7395123;19;1842;-34
2024/01/12 06:02:30;;;;;;;;;;;;;;;18.28;54.24;101115.63;7394077;19;1397;-34
2024/01/12 06:05:01;;;;;;;;;;;;;;;18.23;54.42;101119.63;7395472;19;1256;-34
2024/01/12 06:07:30;;;;;;;;;;;;;;;18.27;54.69;101102.38;7396282;19;1026;-34
2024/01/12 06:09:58;;;;;;;;;;;;;;;18.36;54.75;101122.19;7378752;19;2072;-37
2024/01/12 06:12:26;;;;;;;;;;;;;;;18.46;54.60;101123.13;7393888;19;1878;-34
2024/01/12 06:14:55;;;;;;;;;;;;;;;18.58;54.33;101132.03;7391951;19;1591;-34
2024/01/12 06:17:23;;;;;;;;;;;;;;;18.54;54.48;101131.41;7390046;19;852;-34
2024/01/12 06:19:51;;;;;;;;;;;;;;;18.47;54.50;101140.94;7390835;19;1566;-35
2024/01/12 06:22:22;;;;;;;;;;;;;;;18.35;54.84;101125.84;7391376;19;1947;-38
2024/01/12 06:24:50;;;;;;;;;;;;;;;18.31;55.22;101127.06;7392215;19;1305;-34
2024/01/12 06:27:19;;;;;;;;;;;;;;;18.27;55.29;101124.63;7391626;19;1758;-34
2024/01/12 06:29:47;;;;;;;;;;;;;;;18.22;55.03;101132.19;7390376;19;1737;-34
2024/01/12 06:32:15;;;;;;;;;;;;;;;18.26;55.12;101151.50;7390579;19;1874;-34
2024/01/12 06:34:44;;;;;;;;;;;;;;;18.23;55.21;101149.09;7390055;19;1742;-34
2024/01/12 06:37:12;;;;;;;;;;;;;;;18.28;55.16;101161.13;7391412;19;1557;-34
2024/01/12 06:39:43;;;;;;;;;;;;;;;18.33;54.94;101166.13;7391712;19;1032;-34
2024/01/12 06:42:11;;;;;;;;;;;;;;;18.41;54.94;101201.19;7391434;19;1592;-35
2024/01/12 06:44:41;;;;;;;;;;;;;;;18.46;54.54;101157.94;7390300;19;1411;-34
2024/01/12 06:47:10;;;;;;;;;;;;;;;18.52;54.45;101160.13;7390055;19;1809;-34
2024/01/12 06:49:38;;;;;;;;;;;;;;;18.54;54.32;101168.91;7393573;19;1423;-34
2024/01/12 06:52:07;;;;;;;;;;;;;;;18.61;54.09;101162.09;7394912;19;1844;-34
2024/01/12 06:54:35;;;;;;;;;;;;;;;18.51;54.43;101169.16;7391925;19;1843;-34
2024/01/12 06:57:06;;;;;;;;;;;;;;;18.41;54.49;101169.03;7395706;19;1654;-34
2024/01/12 06:59:34;;;;;;;;;;;;;;;18.33;54.65;101184.88;7394142;19;1908;-35
2024/01/12 07:02:03;;;;;;;;;;;;;;;18.36;54.75;101176.56;7395148;19;950;-34
2024/01/12 07:04:31;;;;;;;;;;;;;;;18.28;54.64;101184.38;7394495;19;1578;-34
2024/01/12 07:06:59;;;;;;;;;;;;;;;18.32;54.70;101206.41;7392859;19;1581;-34
2024/01/12 07:09:28;;;;;;;;;;;;;;;18.09;54.91;101196.50;7377168;19;1119;-35
2024/01/12 07:11:56;;;;;;;;;;;;;;;17.68;55.74;101191.63;7392598;19;1769;-34
2024/01/12 07:14:27;;;;;;;;;;;;;;;17.44;56.23;101221.91;7392958;19;1817;-34
2024/01/12 07:16:55;;;;;;;;;;;;;;;17.40;56.60;101215.09;7393461;19;1820;-34
2024/01/12 07:19:24;;;;;;;;;;;;;;;17.79;55.67;101198.84;7393758;19;1827;-34
2024/01/12 07:21:52;;;;;;;;;;;;;;;18.11;55.14;101198.22;7392828;19;1718;-34
2024/01/12 07:24:20;;;;;;;;;;;;;;;18.29;54.44;101202.16;7393249;19;1740;-34
2024/01/12 07:26:49;;;;;;;;;;;;;;;18.40;54.19;101206.63;7392615;19;1730;-34
2024/01/12 07:29:21;;;;;;;;;;;;;;;18.44;53.86;101210.78;7392020;19;1084;-34
2024/01/12 07:31:52;;;;;;;;;;;;;;;18.53;53.86;101223.47;7394089;19;1412;-34
2024/01/12 07:34:21;;;;;;;;;;;;;;;18.37;53.92;101229.16;7392063;19;1850;-34
2024/01/12 07:36:49;;;;;;;;;;;;;;;18.31;54.15;101236.84;7393683;19;1650;-34
2024/01/12 07:39:17;;;;;;;;;;;;;;;18.21;54.36;101232.19;7394596;19;1055;-34
2024/01/12 07:41:46;;;;;;;;;;;;;;;18.21;54.41;101248.25;7390843;19;1790;-34
2024/01/12 07:44:15;;;;;;;;;;;;;;;18.17;54.39;101256.66;7391687;19;1480;-34
2024/01/12 07:46:43;;;;;;;;;;;;;;;18.13;54.45;101231.94;7391245;19;1737;-34
2024/01/12 07:49:14;;;;;;;;;;;;;;;18.22;54.43;101255.31;7392354;19;1178;-35
2024/01/12 07:51:42;;;;;;;;;;;;;;;18.23;54.02;101248.97;7392434;19;1741;-35
2024/01/12 07:54:11;;;;;;;;;;;;;;;18.32;53.93;101260.78;7393014;19;1843;-34
2024/01/12 07:56:40;;;;;;;;;;;;;;;18.36;53.75;101245.34;7393830;19;1035;-34
2024/01/12 07:59:08;;;;;;;;;;;;;;;18.47;53.60;101264.13;7393225;19;1821;-34
2024/01/12 08:01:40;;;;;;;;;;;;;;;18.55;53.42;101256.31;7391596;19;1888;-34
2024/01/12 08:04:09;;;;;;;;;;;;;;;18.53;53.31;101258.28;7393140;19;1365;-34
2024/01/12 08:06:40;;;;;;;;;;;;;;;18.44;53.34;101262.53;7391170;19;1730;-34
2024/01/12 08:09:13;;;;;;;;;;;;;;;18.36;53.68;101272.97;7377834;19;1389;-34
2024/01/12 08:11:41;;;;;;;;;;;;;;;18.31;53.74;101266.28;7392180;19;1517;-34
2024/01/12 08:14:10;;;;;;;;;;;;;;;18.27;53.89;101279.91;7391533;19;1833;-34
2024/01/12 08:16:38;;;;;;;;;;;;;;;18.23;53.94;101275.75;7392824;19;1532;-34
2024/01/12 08:19:06;;;;;;;;;;;;;;;18.22;53.89;101284.78;7390626;19;2131;-34
2024/01/12 08:21:35;;;;;;;;;;;;;;;18.28;53.42;101283.41;7390884;19;1491;-34
2024/01/12 08:24:06;;;;;;;;;;;;;;;18.28;53.49;101289.66;7390699;19;1449;-34
2024/01/12 08:26:34;;;;;;;;;;;;;;;18.41;53.38;101307.44;7390265;19;1630;-37
2024/01/12 08:29:03;;;;;;;;;;;;;;;18.44;53.36;101299.16;7391528;19;1567;-35
2024/01/12 08:31:32;;;;;;;;;;;;;;;18.58;52.76;101293.59;7390647;19;1428;-34
2024/01/12 08:34:00;;;;;;;;;;;;;;;18.62;52.81;101310.25;7390852;19;1860;-34
2024/01/12 08:36:29;;;;;;;;;;;;;;;18.62;52.67;101312.94;7392044;19;1037;-34
2024/01/12 08:38:57;;;;;;;;;;;;;;;18.58;52.82;101298.09;7391721;19;1828;-34
2024/01/12 08:41:28;;;;;;;;;;;;;;;18.48;52.98;101298.81;7389096;19;1242;-34
2024/01/12 08:43:57;;;;;;;;;;;;;;;18.39;52.96;101309.38;7389645;19;1847;-34
2024/01/12 08:46:25;;;;;;;;;;;;;;;18.34;53.29;101317.75;7392989;19;1089;-34
2024/01/12 08:48:54;;;;;;;;;;;;;;;18.29;53.39;101315.44;7392265;19;1816;-34
2024/01/12 08:51:23;;;;;;;;;;;;;;;18.28;53.35;101302.16;7390925;19;1792;-34
2024/01/12 08:53:51;;;;;;;;;;;;;;;18.21;53.46;101307.13;7390277;19;1865;-34
2024/01/12 08:56:20;;;;;;;;;;;;;;;18.26;53.18;101318.38;7391920;19;1725;-34
2024/01/12 08:58:51;;;;;;;;;;;;;;;18.25;53.15;101308.59;7391133;19;1702;-34
2024/01/12 09:01:19;;;;;;;;;;;;;;;18.27;53.07;101316.53;7390613;19;1626;-34
2024/01/12 09:03:47;;;;;;;;;;;;;;;18.21;53.23;101307.13;7390638;19;1655;-34
2024/01/12 09:06:16;;;;;;;;;;;;;;;18.31;53.17;101317.16;7389938;19;1604;-34
2024/01/12 09:08:44;;;;;;;;;;;;;;;18.39;52.75;101322.78;7389337;19;1333;-35
2024/01/12 09:11:13;;;;;;;;;;;;;;;18.41;52.95;101328.84;7375820;19;1508;-34
2024/01/12 09:13:42;;;;;;;;;;;;;;;18.50;52.54;101306.72;7389621;19;1870;-34
2024/01/12 09:16:13;;;;;;;;;;;;;;;18.57;52.66;101333.88;7391764;19;1114;-35
2024/01/12 09:18:42;;;;;;;;;;;;;;;18.63;52.44;101362.88;7392650;19;1821;-34
2024/01/12 09:21:14;;;;;;;;;;;;;;;18.50;52.60;101333.50;7398830;19;1174;-34
2024/01/12 09:23:43;;;;;;;;;;;;;;;18.44;52.93;101332.16;7397196;19;1420;-34
2024/01/12 09:26:11;;;;;;;;;;;;;;;18.35;52.84;101335.53;7397750;19;1249;-35
2024/01/12 09:28:39;;;;;;;;;;;;;;;18.32;52.87;101340.25;7397649;19;1754;-34
2024/01/12 09:31:09;;;;;;;;;;;;;;;18.28;52.87;101345.88;7397987;19;1587;-34
2024/01/12 09:33:41;;;;;;;;;;;;;;;18.26;53.03;101336.22;7398050;19;1853;-34
2024/01/12 09:36:10;;;;;;;;;;;;;;;18.29;52.88;101339.53;7398222;19;1115;-34
2024/01/12 09:38:38;;;;;;;;;;;;;;;18.27;52.67;101336.13;7397544;19;1848;-34
2024/01/12 09:41:08;;;;;;;;;;;;;;;18.27;52.75;101336.13;7393412;19;1837;-34
2024/01/12 09:43:38;;;;;;;;;;;;;;;18.31;52.88;101335.91;7395471;19;1387;-34
2024/01/12 09:46:07;;;;;;;;;;;;;;;18.28;52.75;101345.88;7398571;19;1025;-34
2024/01/12 09:48:37;;;;;;;;;;;;;;;18.20;52.83;101342.91;7396634;19;1593;-35
2024/01/12 09:51:08;;;;;;;;;;;;;;;18.27;52.77;101344.16;7396866;19;1565;-34
2024/01/12 09:53:36;;;;;;;;;;;;;;;18.25;52.71;101335.38;7396503;19;1891;-34
2024/01/12 09:56:04;;;;;;;;;;;;;;;18.27;52.68;101338.78;7396771;19;1732;-34
2024/01/12 09:58:33;;;;;;;;;;;;;;;18.37;52.56;101349.66;7396443;19;1798;-35
2024/01/12 10:01:02;;;;;;;;;;;;;;;18.52;52.20;101377.06;7392257;19;2042;-34
2024/01/12 10:03:31;;;;;;;;;;;;;;;18.59;51.94;101389.03;7392788;19;1664;-34
2024/01/12 10:05:59;;;;;;;;;;;;;;;18.58;52.05;101352.53;7395916;19;1587;-34
2024/01/12 10:08:40;;;;;;;;;;;;;;;18.44;52.38;101366.97;7395839;19;1825;-34
2024/01/12 10:11:09;;;;;;;;;;;;;;;18.41;52.32;101350.28;7381650;19;1599;-34
2024/01/12 10:13:37;;;;;;;;;;;;;;;18.36;52.35;101358.66;7395384;19;1836;-34
2024/01/12 10:16:07;;;;;;;;;;;;;;;18.07;53.12;101344.81;7395374;19;1760;-34
2024/01/12 10:18:35;;;;;;;;;;;;;;;17.65;53.67;101341.66;7396923;19;1907;-34
2024/01/12 10:21:04;;;;;;;;;;;;;;;17.41;54.59;101338.94;7397137;19;1774;-34
2024/01/12 10:23:33;;;;;;;;;;;;;;;17.68;54.06;101352.09;7395919;19;1928;-35
2024/01/12 10:26:06;;;;;;;;;;;;;;;18.04;53.57;101347.69;7396855;19;1598;-36
2024/01/12 10:28:34;;;;;;;;;;;;;;;18.31;52.68;101349.28;7397229;19;1017;-34
2024/01/12 10:31:07;;;;;;;;;;;;;;;18.44;52.25;101348.22;7396599;19;1976;-34
2024/01/12 10:33:35;;;;;;;;;;;;;;;18.57;51.86;101344.59;7396372;19;1886;-34
2024/01/12 10:36:07;;;;;;;;;;;;;;;18.57;51.97;101356.16;7395486;19;1499;-35
2024/01/12 10:38:37;;;;;;;;;;;;;;;18.43;52.24;101351.03;7395300;19;1641;-34
2024/01/12 10:41:09;;;;;;;;;;;;;;;18.35;52.21;101356.09;7395438;19;1313;-34
2024/01/12 10:43:38;;;;;;;;;;;;;;;18.31;52.62;101349.28;7393536;19;1831;-34
2024/01/12 10:46:12;;;;;;;;;;;;;;;18.26;52.43;101363.88;7394167;19;3140;-35
2024/01/12 10:48:43;;;;;;;;;;;;;;;18.32;52.13;101364.38;7396179;19;1011;-34
2024/01/12 10:51:15;;;;;;;;;;;;;;;18.29;52.37;101358.28;7395335;19;1769;-34
2024/01/12 10:53:48;;;;;;;;;;;;;;;18.28;52.52;101356.59;7394396;19;1943;-34
2024/01/12 10:56:19;;;;;;;;;;;;;;;18.27;52.46;101354.84;7394676;19;1934;-34
2024/01/12 10:58:48;;;;;;;;;;;;;;;18.34;52.42;101370.44;7392493;19;1759;-35
2024/01/12 11:01:16;;;;;;;;;;;;;;;18.27;52.32;101368.25;7394842;19;1571;-34
2024/01/12 11:03:45;;;;;;;;;;;;;;;18.24;52.26;101365.81;7394008;19;1489;-34
2024/01/12 11:06:16;;;;;;;;;;;;;;;18.28;52.40;101371.78;7395477;19;1615;-34
2024/01/12 11:08:44;;;;;;;;;;;;;;;18.23;52.34;101369.44;7395342;19;1380;-34
2024/01/12 11:11:16;;;;;;;;;;;;;;;18.25;52.48;101372.00;7378386;19;2245;-34
2024/01/12 11:13:47;;;;;;;;;;;;;;;18.28;52.34;101372.66;7395434;19;1847;-34
2024/01/12 11:16:16;;;;;;;;;;;;;;;18.21;52.33;101368.72;7394812;19;1574;-34
2024/01/12 11:18:44;;;;;;;;;;;;;;;18.24;52.38;101372.97;7395241;19;1670;-36
2024/01/12 11:21:12;;;;;;;;;;;;;;;18.27;52.24;101378.09;7395921;19;1118;-34
2024/01/12 11:23:42;;;;;;;;;;;;;;;18.34;51.99;101378.47;7395314;19;1837;-35
2024/01/12 11:26:10;;;;;;;;;;;;;;;18.44;52.00;101391.06;7396140;19;1833;-34
2024/01/12 11:28:39;;;;;;;;;;;;;;;18.53;51.78;101376.13;7395492;19;1812;-34
2024/01/12 11:31:10;;;;;;;;;;;;;;;18.62;51.77;101396.84;7394458;19;1851;-34
2024/01/12 11:33:43;;;;;;;;;;;;;;;18.56;51.45;101381.25;7396330;19;1682;-34
2024/01/12 11:36:17;;;;;;;;;;;;;;;18.52;51.65;101387.78;7391116;19;1847;-34
2024/01/12 11:38:45;;;;;;;;;;;;;;;18.52;51.70;101382.44;7393733;19;1880;-34
2024/01/12 11:41:14;;;;;;;;;;;;;;;18.40;51.73;101392.28;7390441;19;1521;-34
2024/01/12 11:43:49;;;;;;;;;;;;;;;18.36;51.98;101396.13;7391551;19;1823;-34
2024/01/12 11:46:20;;;;;;;;;;;;;;;18.32;51.94;101393.81;7392951;19;1792;-34
2024/01/12 11:48:49;;;;;;;;;;;;;;;18.32;52.00;101393.81;7393902;19;1110;-34
2024/01/12 11:51:22;;;;;;;;;;;;;;;18.28;52.05;101394.06;7393563;19;1825;-34
2024/01/12 11:53:51;;;;;;;;;;;;;;;18.26;52.09;101400.47;7392679;19;1581;-34
2024/01/12 11:56:19;;;;;;;;;;;;;;;18.24;51.93;101387.22;7391294;19;1842;-34
2024/01/12 11:58:48;;;;;;;;;;;;;;;18.28;52.03;101388.72;7392757;19;1798;-34
2024/01/12 12:01:16;;;;;;;;;;;;;;;18.30;52.15;101396.59;7392040;19;1492;-34
2024/01/12 12:03:49;;;;;;;;;;;;;;;18.28;51.82;101387.81;7392652;19;1412;-35
2024/01/12 12:06:17;;;;;;;;;;;;;;;18.29;51.87;101392.22;7391771;19;1240;-34
2024/01/12 12:08:46;;;;;;;;;;;;;;;18.33;52.02;101414.28;7391871;19;1467;-34
2024/01/12 12:11:15;;;;;;;;;;;;;;;18.29;52.05;101401.09;7376274;19;1203;-34
2024/01/12 12:13:44;;;;;;;;;;;;;;;18.32;51.80;101405.38;7393467;19;1026;-34
2024/01/12 12:16:12;;;;;;;;;;;;;;;18.26;52.10;101398.69;7388098;19;1863;-34
2024/01/12 12:18:42;;;;;;;;;;;;;;;18.27;51.96;101413.75;7390856;19;1670;-34
2024/01/12 12:21:13;;;;;;;;;;;;;;;18.29;51.95;101408.28;7393251;19;1744;-34
2024/01/12 12:23:42;;;;;;;;;;;;;;;18.25;52.14;101413.03;7391803;19;1404;-34
2024/01/12 12:26:12;;;;;;;;;;;;;;;18.20;52.09;101393.75;7391583;19;1478;-39
2024/01/12 12:28:40;;;;;;;;;;;;;;;18.24;51.88;101405.97;7392187;19;1417;-34
2024/01/12 12:31:09;;;;;;;;;;;;;;;18.26;52.01;101403.16;7392799;19;984;-34
2024/01/12 12:33:35;;;;;;;;;;;;;;;18.35;51.78;101402.47;7392619;19;1892;-34
2024/01/12 12:36:04;;;;;;;;;;;;;;;18.37;51.84;101399.69;7389429;19;1862;-34
2024/01/12 12:38:35;;;;;;;;;;;;;;;18.42;51.85;101398.38;7391504;19;1507;-34
2024/01/12 12:41:03;;;;;;;;;;;;;;;18.55;51.43;101403.63;7391444;19;1556;-34
2024/01/12 12:43:31;;;;;;;;;;;;;;;18.58;51.17;101426.66;7390209;19;1122;-34
2024/01/12 12:46:00;;;;;;;;;;;;;;;18.55;51.15;101411.69;7392236;19;1098;-34
2024/01/12 12:48:29;;;;;;;;;;;;;;;18.50;51.34;101435.25;7391885;19;1927;-34
2024/01/12 12:50:57;;;;;;;;;;;;;;;18.43;51.51;101428.69;7390900;19;1590;-34
2024/01/12 12:53:25;;;;;;;;;;;;;;;18.33;51.82;101428.50;7395341;19;1868;-34
2024/01/12 12:55:56;;;;;;;;;;;;;;;18.39;51.48;101432.56;7396902;19;1853;-34
2024/01/12 12:58:25;;;;;;;;;;;;;;;18.34;51.52;101424.00;7398809;19;1797;-34